Time;durP1;ratioP1;P1;durP2;ratioP2;P2;SDS_P1;SDS_P2;PMS_P1;PMS_P2;Temp;Humidity;BMP_temperature;BMP_pressure;BME280_temperature;BME280_humidity;BME280_pressure;Samples;Min_cycle;Max_cycle;Signal;HPM_P1;HPM_P2
2023/03/26 00:01:39;;;;;;;102.20;72.47;;;11.50;99.90;;;;;;5089010;28;20222;-81
2023/03/26 00:04:07;;;;;;;14.40;9.80;;;11.50;99.90;;;;;;5089795;28;20230;-81
2023/03/26 00:06:38;;;;;;;12.93;9.27;;;11.50;99.90;;;;;;5094370;28;20215;-77
2023/03/26 00:09:07;;;;;;;43.58;29.90;;;11.50;99.90;;;;;;5088362;28;20668;-81
2023/03/26 00:11:35;;;;;;;12.85;8.50;;;11.50;99.90;;;;;;5082371;28;20224;-76
2023/03/26 00:14:04;;;;;;;8.18;7.38;;;11.50;99.90;;;;;;5082652;28;20216;-76
2023/03/26 00:16:33;;;;;;;8.93;5.57;;;11.50;99.90;;;;;;5089611;28;20246;-81
2023/03/26 00:19:00;;;;;;;10.02;5.97;;;11.50;99.90;;;;;;5085980;28;20700;-82
2023/03/26 00:21:31;;;;;;;10.13;6.22;;;11.50;99.90;;;;;;5088138;28;20305;-81
2023/03/26 00:24:03;;;;;;;11.15;9.52;;;11.50;99.90;;;;;;5089486;28;20622;-81
2023/03/26 00:26:31;;;;;;;7.80;5.05;;;11.50;99.90;;;;;;5091043;28;20215;-81
2023/03/26 00:28:59;;;;;;;11.18;8.10;;;11.50;99.90;;;;;;5087801;28;20281;-81
2023/03/26 00:31:27;;;;;;;8.45;7.22;;;11.30;99.90;;;;;;5087938;28;20216;-80
2023/03/26 00:33:57;;;;;;;4.82;3.63;;;11.30;99.90;;;;;;5089655;28;20549;-76
2023/03/26 00:36:25;;;;;;;20.95;13.73;;;11.30;99.90;;;;;;5089179;28;20223;-76
2023/03/26 00:38:55;;;;;;;17.25;12.27;;;11.30;99.90;;;;;;5090673;28;20276;-81
2023/03/26 00:41:24;;;;;;;9.95;6.43;;;11.30;99.90;;;;;;5093565;28;20219;-80
2023/03/26 00:43:54;;;;;;;67.38;37.15;;;11.30;99.90;;;;;;5087433;28;20226;-81
2023/03/26 00:46:22;;;;;;;22.63;17.50;;;11.40;99.90;;;;;;5090831;28;20218;-81
2023/03/26 00:48:49;;;;;;;12.32;6.93;;;11.30;99.90;;;;;;5091326;28;20276;-76
2023/03/26 00:51:19;;;;;;;14.55;9.48;;;11.30;99.90;;;;;;5091368;28;20234;-80
2023/03/26 00:53:48;;;;;;;7.70;4.95;;;11.30;99.90;;;;;;5091662;28;20665;-76
2023/03/26 00:56:16;;;;;;;13.68;10.40;;;11.20;99.90;;;;;;5088264;28;20220;-77
2023/03/26 00:58:43;;;;;;;4.90;2.90;;;11.20;99.90;;;;;;5087456;28;21127;-77
2023/03/26 01:01:13;;;;;;;7.25;4.53;;;11.20;99.90;;;;;;5093286;28;20238;-80
2023/03/26 01:03:42;;;;;;;15.23;9.00;;;11.20;99.90;;;;;;5087738;28;20222;-76
2023/03/26 01:06:12;;;;;;;12.00;8.23;;;11.20;99.90;;;;;;5087464;28;20223;-76
2023/03/26 01:08:43;;;;;;;26.10;18.13;;;11.20;99.90;;;;;;5087713;28;20219;-81
2023/03/26 01:11:19;;;;;;;22.63;16.35;;;11.20;99.90;;;;;;5089727;28;20628;-76
2023/03/26 01:13:49;;;;;;;7.22;3.70;;;11.30;99.90;;;;;;5090575;28;20359;-81
2023/03/26 01:16:20;;;;;;;8.57;7.38;;;11.30;99.90;;;;;;5095127;28;20216;-76
2023/03/26 01:18:48;;;;;;;8.77;5.32;;;11.30;99.90;;;;;;5086770;28;20223;-76
2023/03/26 01:21:21;;;;;;;8.93;6.35;;;11.30;99.90;;;;;;5097847;28;20219;-75
2023/03/26 01:24:00;;;;;;;7.22;5.28;;;11.30;99.90;;;;;;5103625;28;20306;-76
2023/03/26 01:27:10;;;;;;;8.88;5.90;;;11.30;99.90;;;;;;5092772;28;20207;-76
2023/03/26 01:29:43;;;;;;;12.52;9.48;;;11.30;99.90;;;;;;5089503;28;20231;-80
2023/03/26 01:32:22;;;;;;;7.88;5.00;;;11.40;99.90;;;;;;5093092;28;20677;-76
2023/03/26 01:35:05;;;;;;;7.88;5.10;;;11.30;99.90;;;;;;5085033;28;20231;-75
2023/03/26 01:37:42;;;;;;;10.73;5.80;;;11.30;99.90;;;;;;5084151;28;20272;-80
2023/03/26 01:40:17;;;;;;;23.13;14.88;;;11.30;99.90;;;;;;5083621;28;20612;-80
2023/03/26 01:42:52;;;;;;;15.68;10.00;;;11.30;99.90;;;;;;5090171;28;20644;-80
2023/03/26 01:45:23;;;;;;;22.90;13.88;;;11.30;99.90;;;;;;5093214;28;20215;-75
2023/03/26 01:47:50;;;;;;;9.30;6.43;;;11.30;99.90;;;;;;5092707;28;20723;-80
2023/03/26 01:50:17;;;;;;;67.22;35.78;;;11.30;99.90;;;;;;5093337;28;20242;-76
2023/03/26 01:52:45;;;;;;;9.77;5.07;;;11.30;99.90;;;;;;5092911;28;20226;-80
2023/03/26 01:55:13;;;;;;;8.00;5.05;;;11.20;99.90;;;;;;5112641;28;20225;-80
2023/03/26 01:57:52;;;;;;;6.70;4.05;;;11.20;99.90;;;;;;5112815;27;20249;-76
2023/03/26 02:00:27;;;;;;;11.88;9.00;;;11.20;99.90;;;;;;5113395;27;20299;-75
2023/03/26 02:03:16;;;;;;;35.55;24.35;;;11.20;99.90;;;;;;5109486;28;20224;-75
2023/03/26 02:05:50;;;;;;;8.80;6.20;;;11.20;99.90;;;;;;5113169;28;20219;-83
2023/03/26 02:08:23;;;;;;;7.63;4.55;;;11.20;99.90;;;;;;5112177;28;20276;-75
2023/03/26 02:10:57;;;;;;;20.95;10.55;;;11.20;99.90;;;;;;5104027;28;20231;-76
2023/03/26 02:13:24;;;;;;;6.75;3.85;;;11.10;99.90;;;;;;5092900;28;20298;-76
2023/03/26 02:15:55;;;;;;;11.57;7.57;;;11.10;99.90;;;;;;5092439;28;20262;-77
2023/03/26 02:18:23;;;;;;;9.57;6.45;;;11.10;99.90;;;;;;5092020;28;20223;-76
2023/03/26 02:20:51;;;;;;;10.88;7.25;;;11.10;99.90;;;;;;5092506;28;20219;-76
2023/03/26 02:23:19;;;;;;;10.82;9.00;;;11.10;99.90;;;;;;5092479;28;20223;-76
2023/03/26 02:25:46;;;;;;;8.93;6.28;;;11.10;99.90;;;;;;5091777;28;20223;-76
2023/03/26 02:28:15;;;;;;;5.47;3.92;;;11.10;99.90;;;;;;5092864;28;20268;-76
2023/03/26 02:30:46;;;;;;;4.88;2.78;;;11.10;99.90;;;;;;5091800;28;20270;-77
2023/03/26 02:33:14;;;;;;;16.45;12.88;;;11.10;99.90;;;;;;5089762;28;20223;-76
2023/03/26 02:35:44;;;;;;;6.50;5.28;;;11.00;99.90;;;;;;5073822;28;20228;-76
2023/03/26 02:38:13;;;;;;;6.25;5.15;;;11.00;99.90;;;;;;5092841;28;20284;-76
2023/03/26 02:40:40;;;;;;;25.38;17.73;;;11.00;99.90;;;;;;5089441;28;20243;-77
2023/03/26 02:43:08;;;;;;;34.50;19.60;;;11.00;99.90;;;;;;5089437;28;20218;-77
2023/03/26 02:45:36;;;;;;;6.15;5.60;;;10.90;99.90;;;;;;5104213;28;20229;-77
2023/03/26 02:48:03;;;;;;;18.40;13.23;;;10.90;99.90;;;;;;5092519;28;20282;-76
2023/03/26 02:50:35;;;;;;;9.48;5.07;;;10.90;99.90;;;;;;5092870;28;20215;-76
2023/03/26 02:53:02;;;;;;;32.00;20.35;;;10.90;99.90;;;;;;5091563;28;20307;-75
2023/03/26 02:55:29;;;;;;;13.52;10.95;;;10.90;99.90;;;;;;5091736;28;20215;-76
2023/03/26 02:57:56;;;;;;;11.88;7.40;;;10.90;99.90;;;;;;5091599;28;20351;-76
2023/03/26 03:00:24;;;;;;;11.90;9.43;;;10.90;99.90;;;;;;5092429;28;20219;-76
2023/03/26 03:02:53;;;;;;;9.30;5.40;;;10.90;99.90;;;;;;5091429;28;20231;-76
2023/03/26 03:05:25;;;;;;;9.35;6.15;;;10.90;99.90;;;;;;5091946;28;20261;-76
2023/03/26 03:07:57;;;;;;;6.05;3.80;;;10.80;99.90;;;;;;5091215;28;20284;-79
2023/03/26 03:10:25;;;;;;;5.18;2.80;;;10.80;99.90;;;;;;5092734;28;20280;-76
2023/03/26 03:12:52;;;;;;;14.85;9.40;;;10.90;99.90;;;;;;5092401;28;20230;-79
2023/03/26 03:15:19;;;;;;;9.05;6.53;;;10.90;99.90;;;;;;5091578;28;20220;-76
2023/03/26 03:17:47;;;;;;;16.30;11.48;;;10.90;99.90;;;;;;5090997;28;20255;-78
2023/03/26 03:20:16;;;;;;;9.13;5.03;;;10.90;99.90;;;;;;5092201;28;20239;-78
2023/03/26 03:22:44;;;;;;;6.50;4.95;;;10.90;99.90;;;;;;5091920;28;20285;-78
2023/03/26 03:25:13;;;;;;;11.68;8.88;;;11.00;99.90;;;;;;5091290;28;20219;-79
2023/03/26 03:27:41;;;;;;;6.93;5.50;;;11.00;99.90;;;;;;5090698;28;20552;-78
2023/03/26 03:30:11;;;;;;;5.38;3.70;;;11.00;99.90;;;;;;5091256;28;20219;-78
2023/03/26 03:32:38;;;;;;;20.73;12.73;;;11.00;99.90;;;;;;5091712;28;20235;-77
2023/03/26 03:35:06;;;;;;;8.63;5.10;;;11.00;99.90;;;;;;5075933;28;20216;-76
2023/03/26 03:37:34;;;;;;;8.43;6.25;;;11.00;99.90;;;;;;5091574;28;20234;-80
2023/03/26 03:40:06;;;;;;;5.97;5.38;;;11.00;99.90;;;;;;5091575;28;20256;-79
2023/03/26 03:42:34;;;;;;;7.35;3.28;;;11.10;99.90;;;;;;5087587;28;20227;-78
2023/03/26 03:45:02;;;;;;;12.20;8.40;;;11.00;99.90;;;;;;5076823;28;20220;-78
2023/03/26 03:47:29;;;;;;;5.88;4.95;;;11.00;99.90;;;;;;5075410;28;20647;-76
2023/03/26 03:49:58;;;;;;;3.58;3.28;;;11.00;99.90;;;;;;5092810;28;20247;-79
2023/03/26 03:52:26;;;;;;;22.13;14.48;;;11.00;99.90;;;;;;5094775;28;20235;-79
2023/03/26 03:54:56;;;;;;;13.40;10.35;;;11.00;99.90;;;;;;5108552;28;20215;-77
2023/03/26 03:57:23;;;;;;;17.23;11.50;;;11.10;99.90;;;;;;5104842;28;20253;-79
2023/03/26 03:59:50;;;;;;;10.55;6.63;;;11.10;99.90;;;;;;5098725;28;20223;-76
2023/03/26 04:02:24;;;;;;;174.82;101.03;;;11.10;99.90;;;;;;5098111;28;20618;-76
2023/03/26 04:04:56;;;;;;;7.47;5.40;;;11.10;99.90;;;;;;5095222;28;20612;-77
2023/03/26 04:07:23;;;;;;;18.92;12.50;;;11.10;99.90;;;;;;5096640;28;20226;-77
2023/03/26 04:09:50;;;;;;;7.80;4.20;;;11.00;99.90;;;;;;5094823;28;20223;-76
2023/03/26 04:12:19;;;;;;;5.78;5.15;;;11.10;99.90;;;;;;5088499;28;20250;-76
2023/03/26 04:14:46;;;;;;;13.57;9.52;;;11.10;99.90;;;;;;5107617;28;20304;-77
2023/03/26 04:17:14;;;;;;;11.60;5.63;;;11.00;99.90;;;;;;5094445;28;20557;-75
2023/03/26 04:19:42;;;;;;;10.85;6.20;;;11.10;99.90;;;;;;5095671;28;20259;-76
2023/03/26 04:22:10;;;;;;;8.15;5.68;;;11.10;99.90;;;;;;5094742;28;20223;-76
2023/03/26 04:24:39;;;;;;;3.85;3.38;;;11.10;99.90;;;;;;5094497;28;20699;-76
2023/03/26 04:27:07;;;;;;;25.95;12.98;;;11.10;99.90;;;;;;5094883;28;20227;-78
2023/03/26 04:29:42;;;;;;;15.95;9.00;;;11.10;99.90;;;;;;5095527;28;20231;-76
2023/03/26 04:32:18;;;;;;;49.17;29.80;;;11.00;99.90;;;;;;5093990;28;20215;-75
2023/03/26 04:34:46;;;;;;;31.05;18.73;;;11.00;99.90;;;;;;5079640;28;20311;-76
2023/03/26 04:37:23;;;;;;;7.65;5.10;;;11.10;99.90;;;;;;5089093;28;20684;-76
2023/03/26 04:39:50;;;;;;;13.35;8.00;;;11.00;99.90;;;;;;5093596;28;20678;-78
2023/03/26 04:42:18;;;;;;;117.43;58.83;;;11.00;99.90;;;;;;5091029;28;20234;-77
2023/03/26 04:44:49;;;;;;;4.70;3.33;;;11.00;99.90;;;;;;5099502;28;20314;-76
2023/03/26 04:47:18;;;;;;;36.25;17.05;;;11.00;99.90;;;;;;5093772;28;20242;-75
2023/03/26 04:49:46;;;;;;;8.20;6.10;;;11.00;99.90;;;;;;5094762;28;20238;-78
2023/03/26 04:52:16;;;;;;;19.75;12.98;;;11.00;99.90;;;;;;5094321;28;20731;-78
2023/03/26 04:54:45;;;;;;;7.20;4.20;;;11.00;99.90;;;;;;5093832;28;20223;-75
2023/03/26 04:57:17;;;;;;;15.90;12.88;;;11.10;99.90;;;;;;5093882;28;20633;-78
2023/03/26 04:59:46;;;;;;;44.28;28.02;;;11.10;99.90;;;;;;5098130;28;20622;-78
2023/03/26 05:02:14;;;;;;;9.15;6.45;;;11.10;99.90;;;;;;5114867;28;20230;-78
2023/03/26 05:04:42;;;;;;;12.40;7.75;;;11.10;99.90;;;;;;5096291;28;20242;-78
2023/03/26 05:07:11;;;;;;;7.63;4.60;;;11.00;99.90;;;;;;5092073;28;20302;-78
2023/03/26 05:09:38;;;;;;;60.42;37.20;;;11.00;99.90;;;;;;5092650;28;20227;-76
2023/03/26 05:12:07;;;;;;;29.50;19.73;;;11.00;99.90;;;;;;5079840;28;20220;-78
2023/03/26 05:14:35;;;;;;;23.95;17.40;;;11.00;99.90;;;;;;5071825;28;20247;-78
2023/03/26 05:17:04;;;;;;;13.40;9.77;;;11.00;99.90;;;;;;5090551;28;20523;-76
2023/03/26 05:19:32;;;;;;;46.92;25.58;;;11.00;99.90;;;;;;5093188;28;20661;-78
2023/03/26 05:21:58;;;;;;;42.33;26.40;;;11.00;99.90;;;;;;5093372;28;20246;-75
2023/03/26 05:24:27;;;;;;;232.63;135.30;;;11.00;99.90;;;;;;5092217;28;20223;-78
2023/03/26 05:26:54;;;;;;;39.15;25.92;;;11.00;99.90;;;;;;5093727;28;20222;-76
2023/03/26 05:29:34;;;;;;;12.65;10.30;;;11.00;99.90;;;;;;5097881;28;20223;-76
2023/03/26 05:32:03;;;;;;;8.40;6.28;;;11.00;99.90;;;;;;5091844;28;20215;-77
2023/03/26 05:34:30;;;;;;;10.00;5.80;;;11.10;99.90;;;;;;5086015;28;20281;-76
2023/03/26 05:36:57;;;;;;;18.25;11.23;;;11.10;99.90;;;;;;5071771;28;20232;-76
2023/03/26 05:39:25;;;;;;;10.02;6.10;;;11.10;99.90;;;;;;5072207;28;20232;-76
2023/03/26 05:41:52;;;;;;;14.68;9.82;;;11.10;99.90;;;;;;5085322;28;20742;-78
2023/03/26 05:44:20;;;;;;;18.65;11.05;;;11.10;99.90;;;;;;5094555;28;20227;-76
2023/03/26 05:46:47;;;;;;;8.35;4.68;;;11.10;99.90;;;;;;5113014;28;20280;-76
2023/03/26 05:49:23;;;;;;;16.10;11.27;;;11.00;99.90;;;;;;5107314;28;20309;-78
2023/03/26 05:51:50;;;;;;;16.13;9.90;;;11.10;99.90;;;;;;5092699;28;20319;-77
2023/03/26 05:54:17;;;;;;;7.72;6.25;;;11.10;99.90;;;;;;5091679;28;20327;-77
2023/03/26 05:56:44;;;;;;;55.33;27.55;;;11.10;99.90;;;;;;5093254;28;20308;-76
2023/03/26 05:59:11;;;;;;;19.92;11.82;;;11.10;99.90;;;;;;5092231;28;20619;-77
2023/03/26 06:01:38;;;;;;;32.83;22.25;;;11.10;99.90;;;;;;5092347;28;20223;-76
2023/03/26 06:04:05;;;;;;;8.05;5.72;;;11.10;99.90;;;;;;5091583;28;20237;-77
2023/03/26 06:06:33;;;;;;;14.80;7.40;;;11.10;99.90;;;;;;5091654;28;20230;-79
2023/03/26 06:09:18;;;;;;;18.05;11.48;;;11.10;99.90;;;;;;5092296;28;20227;-78
2023/03/26 06:11:45;;;;;;;13.27;9.43;;;11.10;99.90;;;;;;5098312;28;20230;-79
2023/03/26 06:14:12;;;;;;;9.82;6.72;;;11.10;99.90;;;;;;5109012;28;20252;-77
2023/03/26 06:16:40;;;;;;;26.00;15.32;;;11.10;99.90;;;;;;5099003;28;20227;-79
2023/03/26 06:19:07;;;;;;;14.63;9.73;;;11.10;99.90;;;;;;5080659;28;20235;-76
2023/03/26 06:21:35;;;;;;;14.88;10.50;;;11.10;99.90;;;;;;5075302;28;20219;-79
2023/03/26 06:24:02;;;;;;;9.02;4.88;;;11.10;99.90;;;;;;5076040;28;20277;-79
2023/03/26 06:26:29;;;;;;;5.53;3.78;;;11.10;99.90;;;;;;5073494;28;20216;-76
2023/03/26 06:28:56;;;;;;;9.65;6.53;;;11.10;99.90;;;;;;5072719;28;20681;-79
2023/03/26 06:31:24;;;;;;;20.35;11.77;;;11.10;99.90;;;;;;5072143;28;20304;-77
2023/03/26 06:33:52;;;;;;;6.00;3.95;;;11.10;99.90;;;;;;5072416;28;20475;-79
2023/03/26 06:36:19;;;;;;;6.65;4.13;;;11.20;99.90;;;;;;5072656;28;20677;-79
2023/03/26 06:38:48;;;;;;;16.92;10.90;;;11.20;99.90;;;;;;5070760;28;20234;-77
2023/03/26 06:41:15;;;;;;;11.18;7.38;;;11.20;99.90;;;;;;5072947;28;20216;-77
2023/03/26 06:43:42;;;;;;;8.75;5.55;;;11.20;99.90;;;;;;5072316;28;20228;-79
2023/03/26 06:46:09;;;;;;;6.50;3.67;;;11.20;99.90;;;;;;5072644;28;20216;-79
2023/03/26 06:48:37;;;;;;;7.88;5.13;;;11.20;99.90;;;;;;5071741;28;20223;-77
2023/03/26 06:51:04;;;;;;;3.55;3.17;;;11.10;99.90;;;;;;5073089;28;20278;-79
2023/03/26 06:53:31;;;;;;;15.30;7.85;;;11.10;99.90;;;;;;5070932;28;20269;-79
2023/03/26 06:56:03;;;;;;;11.90;7.00;;;11.10;99.90;;;;;;5072367;28;20220;-79
2023/03/26 06:58:33;;;;;;;4.90;3.00;;;11.10;99.90;;;;;;5073049;28;20230;-79
2023/03/26 07:01:01;;;;;;;4.07;1.70;;;11.10;99.90;;;;;;5071947;28;20562;-79
2023/03/26 07:03:28;;;;;;;3.35;1.75;;;11.20;99.90;;;;;;5072876;28;20228;-79
2023/03/26 07:05:55;;;;;;;1.90;1.70;;;11.20;99.90;;;;;;5071908;28;20227;-75
2023/03/26 07:08:23;;;;;;;4.25;2.25;;;11.20;99.90;;;;;;5072133;28;20813;-75
2023/03/26 07:10:50;;;;;;;12.77;8.50;;;11.30;99.90;;;;;;5071501;28;20257;-78
2023/03/26 07:13:18;;;;;;;14.93;7.88;;;11.30;99.90;;;;;;5072217;28;20297;-78
2023/03/26 07:15:45;;;;;;;6.65;4.55;;;11.30;99.90;;;;;;5070966;28;20224;-77
2023/03/26 07:18:12;;;;;;;6.65;4.45;;;11.40;99.90;;;;;;5071623;28;20224;-78
2023/03/26 07:20:41;;;;;;;13.35;8.07;;;11.40;99.90;;;;;;5072080;28;20349;-77
2023/03/26 07:23:12;;;;;;;5.47;3.70;;;11.50;99.90;;;;;;5071750;28;20223;-76
2023/03/26 07:25:40;;;;;;;8.07;4.10;;;11.50;99.90;;;;;;5071532;28;20295;-78
2023/03/26 07:28:13;;;;;;;5.93;4.63;;;11.60;99.90;;;;;;5072019;28;20239;-75
2023/03/26 07:30:53;;;;;;;4.53;3.00;;;11.60;99.90;;;;;;5074924;28;20749;-75
2023/03/26 07:33:24;;;;;;;6.20;2.90;;;11.60;99.90;;;;;;5076107;28;20216;-78
2023/03/26 07:35:59;;;;;;;5.03;2.78;;;11.60;99.90;;;;;;5074658;28;20228;-77
2023/03/26 07:38:37;;;;;;;7.00;3.90;;;11.70;99.90;;;;;;5075578;28;20247;-78
2023/03/26 07:41:11;;;;;;;3.65;2.40;;;11.70;99.90;;;;;;5075044;28;20239;-77
2023/03/26 07:43:54;;;;;;;5.03;3.08;;;11.80;99.90;;;;;;5075318;28;20274;-78
2023/03/26 07:46:33;;;;;;;3.50;1.83;;;11.80;99.90;;;;;;5068555;28;20542;-77
2023/03/26 07:49:04;;;;;;;3.67;3.10;;;11.80;99.90;;;;;;5075215;28;20227;-75
2023/03/26 07:51:31;;;;;;;5.80;3.13;;;11.80;99.90;;;;;;5074549;28;20296;-75
2023/03/26 07:53:59;;;;;;;4.20;3.45;;;11.80;99.90;;;;;;5074732;28;20232;-75
2023/03/26 07:56:33;;;;;;;5.30;4.18;;;11.80;99.90;;;;;;5074473;28;20240;-78
2023/03/26 07:59:13;;;;;;;10.82;6.65;;;11.80;99.90;;;;;;5074583;28;20228;-76
2023/03/26 08:01:54;;;;;;;5.65;3.72;;;11.80;99.90;;;;;;5074854;28;20231;-76
2023/03/26 08:04:46;;;;;;;7.13;5.88;;;11.80;99.90;;;;;;5073830;28;20219;-75
2023/03/26 08:07:25;;;;;;;18.25;10.05;;;11.70;99.90;;;;;;5074688;28;20216;-76
2023/03/26 08:10:05;;;;;;;11.75;8.25;;;11.70;99.90;;;;;;5075379;28;20270;-76
2023/03/26 08:12:41;;;;;;;9.90;5.75;;;11.70;99.90;;;;;;5073374;28;20292;-76
2023/03/26 08:15:15;;;;;;;8.80;5.72;;;11.70;99.90;;;;;;5074036;28;20234;-77
2023/03/26 08:17:49;;;;;;;12.13;6.85;;;11.70;99.90;;;;;;5074685;28;20669;-79
2023/03/26 08:20:31;;;;;;;5.60;4.60;;;11.70;99.90;;;;;;5073879;28;20271;-77
2023/03/26 08:23:05;;;;;;;6.47;3.20;;;11.70;99.90;;;;;;5074349;28;20256;-78
2023/03/26 08:25:53;;;;;;;6.18;3.63;;;11.80;99.90;;;;;;5074072;28;20231;-77
2023/03/26 08:28:32;;;;;;;9.35;6.30;;;11.80;99.90;;;;;;5073738;28;20636;-79
2023/03/26 08:31:01;;;;;;;9.90;5.47;;;11.90;99.90;;;;;;5074725;28;20220;-75
2023/03/26 08:33:31;;;;;;;10.77;7.55;;;11.90;99.90;;;;;;5074333;28;20311;-77
2023/03/26 08:35:58;;;;;;;6.47;3.92;;;11.90;99.90;;;;;;5073733;28;20285;-77
2023/03/26 08:38:27;;;;;;;6.32;3.17;;;12.00;99.90;;;;;;5074044;28;20227;-78
2023/03/26 08:41:24;;;;;;;8.35;3.58;;;12.00;99.90;;;;;;5073253;28;20220;-78
2023/03/26 08:44:18;;;;;;;7.68;3.13;;;12.10;99.90;;;;;;5077667;28;20208;-77
2023/03/26 08:47:02;;;;;;;34.55;16.02;;;12.10;99.90;;;;;;5057737;28;20343;-74
2023/03/26 08:50:11;;;;;;;26.13;14.00;;;12.10;99.90;;;;;;5091963;28;20240;-76
2023/03/26 08:53:14;;;;;;;5.15;3.30;;;12.10;99.90;;;;;;4999656;28;20628;-76
2023/03/26 08:55:49;;;;;;;6.32;2.80;;;12.00;99.90;;;;;;5054150;28;21003;-76
2023/03/26 08:58:45;;;;;;;3.58;2.45;;;12.00;99.90;;;;;;5053969;28;20256;-78
2023/03/26 09:01:47;;;;;;;6.22;2.90;;;11.90;99.90;;;;;;5054970;28;20209;-78
2023/03/26 09:04:45;;;;;;;44.03;25.80;;;11.90;99.90;;;;;;5053530;28;20271;-78
2023/03/26 09:07:51;;;;;;;4.50;2.97;;;11.80;99.90;;;;;;5053663;28;20233;-78
2023/03/26 09:10:53;;;;;;;3.90;2.70;;;11.80;99.90;;;;;;5053731;28;20232;-76
2023/03/26 09:13:42;;;;;;;4.80;2.45;;;11.80;99.90;;;;;;4991570;28;20249;-76
2023/03/26 09:16:26;;;;;;;5.85;4.15;;;11.80;99.90;;;;;;5050370;28;20270;-76
2023/03/26 09:19:35;;;;;;;8.50;5.70;;;11.80;99.90;;;;;;5043933;28;20274;-76
2023/03/26 09:22:26;;;;;;;7.38;5.10;;;11.80;99.90;;;;;;5053621;28;20229;-76
2023/03/26 09:25:17;;;;;;;8.50;3.67;;;11.80;99.90;;;;;;5052844;28;20298;-76
2023/03/26 09:28:10;;;;;;;6.07;4.05;;;11.80;99.90;;;;;;5052510;28;20228;-76
2023/03/26 09:31:18;;;;;;;4.90;2.70;;;11.80;99.90;;;;;;5053325;28;20224;-74
2023/03/26 09:33:59;;;;;;;5.45;4.10;;;11.70;99.90;;;;;;5073087;28;20610;-77
2023/03/26 09:37:11;;;;;;;4.75;2.40;;;11.60;99.90;;;;;;5072896;28;20220;-77
2023/03/26 09:39:48;;;;;;;4.22;2.65;;;11.50;99.90;;;;;;5079015;28;20799;-77
2023/03/26 09:42:30;;;;;;;7.50;2.55;;;11.50;99.90;;;;;;5072563;28;20227;-74
2023/03/26 09:45:27;;;;;;;6.43;3.15;;;11.40;99.90;;;;;;5072391;28;20238;-78
2023/03/26 09:48:28;;;;;;;7.22;4.07;;;11.30;99.90;;;;;;5078595;28;20238;-76
2023/03/26 09:51:20;;;;;;;5.13;3.15;;;11.20;99.90;;;;;;5071868;28;20235;-77
2023/03/26 09:54:05;;;;;;;5.18;2.58;;;11.20;99.90;;;;;;5069685;28;20268;-78
2023/03/26 09:56:43;;;;;;;5.95;2.50;;;11.10;99.90;;;;;;5079515;28;20219;-78
2023/03/26 09:59:46;;;;;;;3.85;2.70;;;11.00;99.90;;;;;;5073005;28;20228;-78
2023/03/26 10:02:31;;;;;;;5.05;3.60;;;10.90;99.90;;;;;;5057702;28;20233;-78
2023/03/26 10:05:16;;;;;;;4.03;2.70;;;10.90;99.90;;;;;;5076433;28;20679;-78
2023/03/26 10:08:09;;;;;;;3.88;2.63;;;10.90;99.90;;;;;;5070991;28;20227;-79
2023/03/26 10:10:45;;;;;;;5.57;3.03;;;10.80;99.90;;;;;;5078685;28;20212;-78
2023/03/26 10:13:24;;;;;;;4.35;2.00;;;10.80;99.90;;;;;;5072235;28;20223;-79
2023/03/26 10:16:13;;;;;;;5.22;2.97;;;10.80;99.90;;;;;;5071816;28;20223;-76
2023/03/26 10:18:52;;;;;;;4.72;2.40;;;10.80;99.90;;;;;;5071184;28;20232;-76
2023/03/26 10:21:36;;;;;;;5.55;4.10;;;10.80;99.90;;;;;;5072717;28;20239;-76
2023/03/26 10:24:19;;;;;;;5.93;4.05;;;10.80;99.90;;;;;;5072549;28;20219;-78
2023/03/26 10:27:01;;;;;;;4.70;3.10;;;10.90;99.90;;;;;;5072163;28;20246;-76
2023/03/26 10:29:50;;;;;;;5.57;3.72;;;10.90;99.90;;;;;;5072277;28;20281;-79
2023/03/26 10:32:26;;;;;;;7.18;2.80;;;11.00;99.90;;;;;;5073719;28;20224;-78
2023/03/26 10:35:23;;;;;;;5.63;3.08;;;11.00;99.90;;;;;;5071946;28;20230;-76
2023/03/26 10:38:14;;;;;;;8.48;4.93;;;11.10;99.90;;;;;;5071185;28;20247;-76
2023/03/26 10:40:51;;;;;;;5.57;3.25;;;11.10;99.90;;;;;;5072003;28;20638;-79
2023/03/26 10:43:45;;;;;;;4.53;2.85;;;11.10;99.90;;;;;;5072695;28;20231;-78
2023/03/26 10:46:48;;;;;;;5.97;4.55;;;11.10;99.90;;;;;;5073542;28;20227;-78
2023/03/26 10:49:51;;;;;;;5.07;3.15;;;11.10;99.90;;;;;;5073176;28;20251;-78
2023/03/26 10:52:23;;;;;;;4.80;3.78;;;11.10;99.90;;;;;;5072496;28;20223;-77
2023/03/26 10:54:56;;;;;;;8.05;3.45;;;11.10;99.90;;;;;;5078426;28;20219;-75
2023/03/26 10:57:34;;;;;;;4.10;3.25;;;11.10;99.90;;;;;;5077024;28;20613;-77
2023/03/26 11:00:14;;;;;;;4.43;3.88;;;11.10;99.90;;;;;;5074967;28;20292;-75
2023/03/26 11:02:47;;;;;;;5.30;3.75;;;11.10;99.90;;;;;;5072147;28;20220;-75
2023/03/26 11:05:28;;;;;;;4.28;3.55;;;11.10;99.90;;;;;;5076420;28;20289;-75
2023/03/26 11:08:02;;;;;;;4.35;2.90;;;11.20;99.90;;;;;;5077965;28;20223;-75
2023/03/26 11:10:40;;;;;;;2.97;2.72;;;11.20;99.90;;;;;;5078211;28;20216;-78
2023/03/26 11:13:15;;;;;;;8.07;4.95;;;11.30;99.90;;;;;;5076563;28;20285;-76
2023/03/26 11:15:47;;;;;;;6.70;4.18;;;11.30;99.90;;;;;;5080071;28;20245;-79
2023/03/26 11:18:19;;;;;;;11.45;4.05;;;11.40;99.90;;;;;;5077519;28;20688;-77
2023/03/26 11:21:07;;;;;;;4.18;2.53;;;11.50;99.90;;;;;;5067507;28;20231;-76
2023/03/26 11:23:40;;;;;;;10.80;4.60;;;11.60;99.90;;;;;;5075959;28;20222;-76
2023/03/26 11:26:12;;;;;;;5.47;4.35;;;11.70;99.90;;;;;;5075667;28;20586;-76
2023/03/26 11:32:04;;;;;;;7.82;3.30;;;11.80;99.90;;;;;;5070555;28;20237;-79
2023/03/26 11:34:37;;;;;;;6.57;2.60;;;11.90;99.90;;;;;;5075733;28;20247;-79
2023/03/26 11:37:08;;;;;;;9.27;6.47;;;12.00;99.90;;;;;;5070114;28;20296;-76
2023/03/26 11:42:29;;;;;;;5.70;3.70;;;12.10;99.90;;;;;;5076647;28;20259;-76
2023/03/26 11:45:00;;;;;;;4.28;2.92;;;12.10;99.90;;;;;;5076133;28;20248;-76
2023/03/26 11:47:38;;;;;;;6.10;4.32;;;12.20;99.90;;;;;;5074327;28;20220;-76
2023/03/26 11:50:10;;;;;;;6.60;3.75;;;12.30;99.90;;;;;;5075654;28;20289;-77
2023/03/26 11:52:38;;;;;;;5.70;4.15;;;12.30;99.90;;;;;;5075182;28;20289;-76
2023/03/26 11:55:07;;;;;;;2.90;2.50;;;12.40;99.90;;;;;;5074345;28;20228;-76
2023/03/26 11:57:36;;;;;;;4.13;3.17;;;12.50;99.90;;;;;;5074487;28;20230;-77
2023/03/26 12:00:15;;;;;;;5.00;3.42;;;12.50;99.90;;;;;;5075187;28;20235;-76
2023/03/26 12:02:43;;;;;;;5.18;3.28;;;12.60;99.90;;;;;;5060080;28;20254;-78
2023/03/26 12:05:19;;;;;;;4.78;3.03;;;12.70;99.90;;;;;;5055244;28;20240;-76
2023/03/26 12:07:51;;;;;;;4.05;3.22;;;12.70;99.90;;;;;;5055119;28;20259;-75
2023/03/26 12:10:26;;;;;;;7.10;3.20;;;12.70;99.90;;;;;;5054613;28;20224;-76
2023/03/26 12:12:55;;;;;;;5.20;3.20;;;12.80;99.90;;;;;;5054100;28;20251;-76
2023/03/26 12:15:24;;;;;;;7.03;3.28;;;12.80;99.90;;;;;;5053411;28;20220;-76
2023/03/26 12:18:13;;;;;;;7.22;3.03;;;12.80;99.90;;;;;;5053187;28;20223;-76
2023/03/26 12:20:41;;;;;;;12.93;8.02;;;12.80;99.90;;;;;;5053855;28;20228;-79
2023/03/26 12:23:37;;;;;;;5.47;4.88;;;12.80;99.90;;;;;;5054881;28;20678;-76
2023/03/26 12:26:13;;;;;;;3.67;3.13;;;12.90;99.90;;;;;;5053880;28;20303;-76
2023/03/26 12:28:45;;;;;;;4.88;4.00;;;13.00;99.90;;;;;;5054384;28;20305;-78
2023/03/26 12:31:17;;;;;;;5.70;2.75;;;13.10;99.90;;;;;;5054774;28;20225;-78
2023/03/26 12:33:46;;;;;;;4.32;2.92;;;13.10;99.90;;;;;;5053791;28;20267;-79
2023/03/26 12:36:25;;;;;;;6.50;3.57;;;13.20;99.90;;;;;;5054883;28;20304;-79
2023/03/26 12:38:54;;;;;;;3.08;2.78;;;13.20;99.90;;;;;;5053870;28;20498;-76
2023/03/26 12:41:34;;;;;;;7.07;2.55;;;13.20;99.90;;;;;;5056708;28;20247;-76
2023/03/26 12:44:22;;;;;;;10.13;7.22;;;13.30;99.90;;;;;;5064811;28;20232;-74
2023/03/26 12:46:52;;;;;;;6.82;5.07;;;13.30;99.90;;;;;;5061302;28;20266;-73
2023/03/26 12:49:21;;;;;;;11.25;8.43;;;13.40;99.90;;;;;;5063284;28;20221;-76
2023/03/26 12:51:51;;;;;;;22.67;15.05;;;13.40;99.90;;;;;;5063739;28;20308;-79
2023/03/26 12:54:31;;;;;;;3.80;3.38;;;13.40;99.90;;;;;;5056105;28;20278;-76
2023/03/26 12:57:11;;;;;;;4.10;3.70;;;13.50;99.90;;;;;;5056492;28;20263;-75
2023/03/26 12:59:49;;;;;;;5.95;2.90;;;13.50;99.90;;;;;;5055676;28;20281;-79
2023/03/26 13:02:32;;;;;;;10.50;6.60;;;13.60;99.90;;;;;;5058464;28;20216;-76
2023/03/26 13:05:46;;;;;;;5.90;4.27;;;13.60;99.90;;;;;;5047302;28;20471;-78
2023/03/26 13:08:31;;;;;;;2.30;2.10;;;13.70;99.90;;;;;;5057541;28;20467;-74
2023/03/26 13:11:11;;;;;;;3.17;2.87;;;13.70;99.90;;;;;;5061088;28;20494;-74
2023/03/26 13:14:08;;;;;;;3.37;3.07;;;13.80;99.90;;;;;;5056774;28;20497;-75
2023/03/26 13:16:41;;;;;;;2.23;2.00;;;13.80;99.90;;;;;;5039941;28;21031;-75
2023/03/26 13:19:14;;;;;;;4.03;3.30;;;13.90;99.90;;;;;;5055912;28;20522;-75
2023/03/26 13:21:55;;;;;;;15.20;10.13;;;13.90;99.90;;;;;;5056471;28;20541;-75
2023/03/26 13:24:34;;;;;;;5.50;4.33;;;13.90;99.90;;;;;;5059086;28;20455;-76